createdAt,value
2022-08-28T00:00:56.000Z,24.73
2022-08-28T00:03:22.000Z,27.13
2022-08-28T00:05:48.000Z,26.65
2022-08-28T00:08:14.000Z,31.82
2022-08-28T00:10:40.000Z,26.7
2022-08-28T00:13:05.000Z,24.97
2022-08-28T00:15:31.000Z,27.03
2022-08-28T00:17:57.000Z,22.55
2022-08-28T00:20:23.000Z,24.23
2022-08-28T00:22:50.000Z,22.2
2022-08-28T00:25:15.000Z,28.07
2022-08-28T00:30:06.000Z,27.02
2022-08-28T00:32:33.000Z,22.58
2022-08-28T00:34:59.000Z,25.37
2022-08-28T00:37:24.000Z,24.27
2022-08-28T00:39:50.000Z,26.4
2022-08-28T00:42:16.000Z,25.65
2022-08-28T00:44:42.000Z,22.07
2022-08-28T00:47:08.000Z,22.33
2022-08-28T00:49:35.000Z,26.33
2022-08-28T00:52:01.000Z,27.6
2022-08-28T00:54:26.000Z,26.02
2022-08-28T00:56:53.000Z,22.7
2022-08-28T00:59:18.000Z,24.37
2022-08-28T01:01:45.000Z,19.6
2022-08-28T01:04:10.000Z,21.27
2022-08-28T01:06:36.000Z,24.87
2022-08-28T01:09:03.000Z,20.85
2022-08-28T01:11:29.000Z,24.37
2022-08-28T01:13:55.000Z,19.87
2022-08-28T01:16:20.000Z,20.2
2022-08-28T01:18:46.000Z,20.2
2022-08-28T01:18:53.000Z,23.53
2022-08-28T01:21:12.000Z,20.1
2022-08-28T01:23:38.000Z,20.1
2022-08-28T01:23:46.000Z,19.5
2022-08-28T01:26:04.000Z,22.32
2022-08-28T01:28:29.000Z,22.32
2022-08-28T01:28:35.000Z,22.7
2022-08-28T01:30:57.000Z,21
2022-08-28T01:33:22.000Z,24.2
2022-08-28T01:35:48.000Z,24.2
2022-08-28T01:35:54.000Z,21.37
2022-08-28T01:38:14.000Z,24.35
2022-08-28T01:40:41.000Z,24.35
2022-08-28T01:40:48.000Z,21.05
2022-08-28T01:43:07.000Z,28.1
2022-08-28T01:45:33.000Z,25.7
2022-08-28T01:47:59.000Z,23.87
2022-08-28T01:50:25.000Z,28.8
2022-08-28T01:52:52.000Z,23.4
2022-08-28T01:57:43.000Z,30.37
2022-08-28T02:00:15.000Z,22.32
2022-08-28T02:02:35.000Z,22.32
2022-08-28T02:02:41.000Z,25.62
2022-08-28T02:05:03.000Z,25.7
2022-08-28T02:07:27.000Z,29.73
2022-08-28T02:09:53.000Z,31.4
2022-08-28T02:12:19.000Z,25.85
2022-08-28T02:14:45.000Z,25.92
2022-08-28T02:17:11.000Z,27.1
2022-08-28T02:19:36.000Z,39.5
2022-08-28T02:22:03.000Z,31.53
2022-08-28T02:24:30.000Z,31.45
2022-08-28T02:26:54.000Z,31.7
2022-08-28T02:29:21.000Z,32.67
2022-08-28T02:31:47.000Z,38.53
2022-08-28T02:34:12.000Z,37.57
2022-08-28T02:36:40.000Z,35.07
2022-08-28T02:39:06.000Z,30.97
2022-08-28T02:41:32.000Z,27.5
2022-08-28T02:43:57.000Z,34.2
2022-08-28T02:46:22.000Z,28.5
2022-08-28T02:51:15.000Z,24.43
2022-08-28T02:53:40.000Z,25.83
2022-08-28T02:56:07.000Z,23.55
2022-08-28T02:58:32.000Z,23.83
2022-08-28T03:00:58.000Z,22.73
2022-08-28T03:03:24.000Z,24.72
2022-08-28T03:05:50.000Z,18.73
2022-08-28T03:08:15.000Z,24.35
2022-08-28T03:10:42.000Z,24.35
2022-08-28T03:10:51.000Z,20.87
2022-08-28T03:13:08.000Z,20.4
2022-08-28T03:15:33.000Z,20.4
2022-08-28T03:15:41.000Z,21.55
2022-08-28T03:17:59.000Z,21.55
2022-08-28T03:18:10.000Z,19.52
2022-08-28T03:20:26.000Z,17.35
2022-08-28T03:22:51.000Z,20.95
2022-08-28T03:25:17.000Z,18.82
2022-08-28T03:27:42.000Z,17.98
2022-08-28T03:30:09.000Z,17.97
2022-08-28T03:32:34.000Z,18.27
2022-08-28T03:35:00.000Z,19.55
2022-08-28T03:37:30.000Z,19.13
2022-08-28T03:39:56.000Z,14.93
2022-08-28T03:42:24.000Z,21.2
2022-08-28T03:44:48.000Z,16.55
2022-08-28T03:47:16.000Z,19.62
2022-08-28T03:49:41.000Z,17.05
2022-08-28T03:52:07.000Z,17.05
2022-08-28T03:54:33.000Z,16.73
2022-08-28T03:57:03.000Z,16.02
2022-08-28T03:59:30.000Z,17.5
2022-08-28T04:01:57.000Z,17.6
2022-08-28T04:04:27.000Z,16
2022-08-28T04:06:54.000Z,19.45
2022-08-28T04:09:21.000Z,17.02
2022-08-28T04:11:49.000Z,17.63
2022-08-28T04:14:15.000Z,18.47
2022-08-28T04:16:46.000Z,16.2
2022-08-28T04:21:45.000Z,17.87
2022-08-28T04:24:13.000Z,17.07
2022-08-28T04:26:46.000Z,18.25
2022-08-28T04:29:14.000Z,21.23
2022-08-28T04:31:40.000Z,16.95
2022-08-28T04:34:06.000Z,18.27
2022-08-28T04:44:20.000Z,20.55
2022-08-28T04:46:48.000Z,19.65
2022-08-28T04:49:15.000Z,19.25
2022-08-28T04:51:45.000Z,16.48
2022-08-28T04:54:17.000Z,17.3
2022-08-28T04:56:46.000Z,17.95
2022-08-28T04:59:16.000Z,17.4
2022-08-28T05:01:43.000Z,19.85
2022-08-28T05:06:39.000Z,19.35
2022-08-28T05:09:08.000Z,19.55
2022-08-28T05:11:34.000Z,20.73
2022-08-28T05:14:11.000Z,21.03
2022-08-28T05:16:43.000Z,21.03
2022-08-28T05:16:50.000Z,17.62
2022-08-28T05:19:13.000Z,18.65
2022-08-28T05:24:11.000Z,27.02
2022-08-28T05:26:38.000Z,24.23
2022-08-28T05:29:05.000Z,24.23
2022-08-28T05:29:12.000Z,23.6
2022-08-28T05:34:00.000Z,26.2
2022-08-28T05:36:30.000Z,18.37
2022-08-28T05:38:56.000Z,21.47
2022-08-28T05:41:22.000Z,21.45
2022-08-28T05:43:52.000Z,22.87
2022-08-28T05:49:04.000Z,23.07
2022-08-28T05:51:28.000Z,23.07
2022-08-28T05:51:34.000Z,22.03
2022-08-28T05:53:55.000Z,29.75
2022-08-28T05:56:21.000Z,36.68
2022-08-28T05:58:54.000Z,34.83
2022-08-28T06:03:49.000Z,39.33
2022-08-28T06:06:19.000Z,40.1
2022-08-28T06:08:47.000Z,37.03
2022-08-28T06:11:16.000Z,37.03
2022-08-28T06:11:26.000Z,37.75
2022-08-28T06:13:46.000Z,39.07
2022-08-28T06:16:16.000Z,35.13
2022-08-28T06:18:45.000Z,40.43
2022-08-28T06:21:14.000Z,36.03
2022-08-28T06:23:40.000Z,40.73
2022-08-28T06:33:49.000Z,42.78
2022-08-28T06:36:14.000Z,39.3
2022-08-28T06:38:45.000Z,40.55
2022-08-28T06:41:19.000Z,41.55
2022-08-28T06:43:55.000Z,36.9
2022-08-28T06:46:24.000Z,39.45
2022-08-28T06:48:54.000Z,41.9
2022-08-28T06:51:21.000Z,41.95
2022-08-28T06:53:52.000Z,41.42
2022-08-28T06:56:18.000Z,38.48
2022-08-28T07:01:24.000Z,38.48
2022-08-28T07:01:32.000Z,38.65
2022-08-28T07:03:52.000Z,39.42
2022-08-28T07:06:20.000Z,40.4
2022-08-28T07:08:49.000Z,40.4
2022-08-28T07:13:48.000Z,40.52
2022-08-28T07:16:16.000Z,39.65
2022-08-28T07:18:45.000Z,41.33
2022-08-28T07:21:12.000Z,39.6
2022-08-28T07:23:40.000Z,37.48
2022-08-28T07:28:45.000Z,35.75
2022-08-28T07:31:12.000Z,37.98
2022-08-28T07:33:37.000Z,39.05
2022-08-28T07:36:04.000Z,39.35
2022-08-28T07:38:29.000Z,39.35
2022-08-28T07:38:37.000Z,38.07
2022-08-28T07:40:55.000Z,38.37
2022-08-28T07:43:21.000Z,36.85
2022-08-28T07:45:47.000Z,39.08
2022-08-28T07:48:13.000Z,39.55
2022-08-28T07:50:39.000Z,39.05
2022-08-28T07:53:04.000Z,40.05
2022-08-28T07:55:31.000Z,37.35
2022-08-28T07:57:56.000Z,40.77
2022-08-28T08:00:22.000Z,41.63
2022-08-28T08:02:48.000Z,43.78
2022-08-28T08:05:14.000Z,41.2
2022-08-28T08:07:40.000Z,39.7
2022-08-28T08:10:05.000Z,37.33
2022-08-28T08:12:31.000Z,41.1
2022-08-28T08:14:57.000Z,41.1
2022-08-28T08:15:05.000Z,44.1
2022-08-28T08:17:23.000Z,50.8
2022-08-28T08:19:51.000Z,42
2022-08-28T08:22:17.000Z,40.73
2022-08-28T08:24:42.000Z,40.2
2022-08-28T08:27:08.000Z,37.3
2022-08-28T08:32:04.000Z,41.25
2022-08-28T08:34:29.000Z,37.47
2022-08-28T08:36:55.000Z,37.97
2022-08-28T08:39:22.000Z,36.88
2022-08-28T08:41:47.000Z,36.88
2022-08-28T08:41:55.000Z,36.77
2022-08-28T08:44:13.000Z,39.53
2022-08-28T08:46:39.000Z,39.43
2022-08-28T08:49:07.000Z,39.8
2022-08-28T08:51:30.000Z,40.28
2022-08-28T08:53:57.000Z,40.33
2022-08-28T08:56:23.000Z,51.3
2022-08-28T08:58:49.000Z,51.3
2022-08-28T08:58:55.000Z,52.55
2022-08-28T09:01:15.000Z,51.7
2022-08-28T09:03:41.000Z,57.1
2022-08-28T09:06:07.000Z,57.1
2022-08-28T09:06:14.000Z,50.73
2022-08-28T09:08:32.000Z,49.8
2022-08-28T09:10:57.000Z,50.8
2022-08-28T09:13:23.000Z,52.8
2022-08-28T09:15:49.000Z,52.88
2022-08-28T09:18:15.000Z,49.47
2022-08-28T09:20:41.000Z,49.9
2022-08-28T09:23:07.000Z,47.67
2022-08-28T09:25:34.000Z,47.67
2022-08-28T09:25:41.000Z,63.5
2022-08-28T09:27:58.000Z,63.5
2022-08-28T09:28:07.000Z,49.73
2022-08-28T09:30:24.000Z,47.13
2022-08-28T09:32:50.000Z,46.93
2022-08-28T09:35:16.000Z,45.2
2022-08-28T09:37:43.000Z,43.1
2022-08-28T09:40:09.000Z,44.6
2022-08-28T09:42:36.000Z,44.73
2022-08-28T09:45:00.000Z,39.63
2022-08-28T09:47:26.000Z,39.63
2022-08-28T09:47:35.000Z,40.73
2022-08-28T09:49:52.000Z,40.73
2022-08-28T09:49:59.000Z,36.77
2022-08-28T09:52:19.000Z,41.95
2022-08-28T09:54:45.000Z,41.95
2022-08-28T09:54:52.000Z,41
2022-08-28T09:57:11.000Z,39.97
2022-08-28T09:59:39.000Z,41.28
2022-08-28T10:02:03.000Z,42.78
2022-08-28T10:04:29.000Z,43.03
2022-08-28T10:06:55.000Z,40.47
2022-08-28T10:09:21.000Z,42.9
2022-08-28T10:11:48.000Z,44.53
2022-08-28T10:14:13.000Z,44.1
2022-08-28T10:16:39.000Z,41.35
2022-08-28T10:19:04.000Z,46.2
2022-08-28T10:23:57.000Z,45.25
2022-08-28T10:26:26.000Z,42.43
2022-08-28T10:28:51.000Z,48.55
2022-08-28T10:31:17.000Z,48.43
2022-08-28T10:33:44.000Z,62.93
2022-08-28T10:36:09.000Z,58.05
2022-08-28T10:38:34.000Z,58.05
2022-08-28T10:38:41.000Z,76.33
2022-08-28T10:41:00.000Z,76.33
2022-08-28T10:41:08.000Z,77.13
2022-08-28T10:43:28.000Z,69.53
2022-08-28T10:45:54.000Z,69.65
2022-08-28T10:48:20.000Z,67.45
2022-08-28T10:50:48.000Z,72.37
2022-08-28T10:53:17.000Z,77.27
2022-08-28T10:55:42.000Z,72.17
2022-08-28T10:58:09.000Z,68.75
2022-08-28T11:00:35.000Z,68.75
2022-08-28T11:00:41.000Z,66
2022-08-28T11:03:01.000Z,59.5
2022-08-28T11:05:27.000Z,59.5
2022-08-28T11:05:38.000Z,57.53
2022-08-28T11:07:52.000Z,57.53
2022-08-28T11:08:00.000Z,65
2022-08-28T11:10:19.000Z,65.47
2022-08-28T11:12:46.000Z,60.2
2022-08-28T11:15:15.000Z,62.38
2022-08-28T11:17:38.000Z,55.4
2022-08-28T11:20:04.000Z,57.67
2022-08-28T11:22:31.000Z,54.37
2022-08-28T11:24:59.000Z,53.68
2022-08-28T11:27:27.000Z,53.68
2022-08-28T11:27:34.000Z,53.83
2022-08-28T11:29:53.000Z,51.58
2022-08-28T11:32:18.000Z,47.58
2022-08-28T11:34:45.000Z,52.7
2022-08-28T11:37:12.000Z,48.7
2022-08-28T11:39:38.000Z,48.02
2022-08-28T11:42:03.000Z,48.52
2022-08-28T11:44:29.000Z,46.45
2022-08-28T11:46:55.000Z,44.48
2022-08-28T11:49:23.000Z,45.08
2022-08-28T11:51:48.000Z,45.52
2022-08-28T11:54:14.000Z,47.55
2022-08-28T11:56:40.000Z,47.55
2022-08-28T11:59:06.000Z,46.65
2022-08-28T12:01:32.000Z,47.08
2022-08-28T12:03:58.000Z,52.65
2022-08-28T12:06:24.000Z,52.65
2022-08-28T12:06:30.000Z,49.38
2022-08-28T12:08:48.000Z,49.03
2022-08-28T12:11:15.000Z,45.6
2022-08-28T12:13:41.000Z,42.8
2022-08-28T12:16:06.000Z,45.92
2022-08-28T12:18:32.000Z,45.92
2022-08-28T12:18:39.000Z,43.67
2022-08-28T12:20:59.000Z,47.77
2022-08-28T12:23:28.000Z,40.67
2022-08-28T12:25:55.000Z,44.53
2022-08-28T12:28:20.000Z,43.23
2022-08-28T12:30:46.000Z,44.65
2022-08-28T12:33:12.000Z,44.23
2022-08-28T12:35:38.000Z,42.93
2022-08-28T12:38:04.000Z,45.57
2022-08-28T12:42:55.000Z,45.92
2022-08-28T12:45:26.000Z,46.35
2022-08-28T12:47:53.000Z,43.02
2022-08-28T12:50:20.000Z,44.73
2022-08-28T12:52:46.000Z,45.25
2022-08-28T12:55:12.000Z,48.83
2022-08-28T12:57:38.000Z,48.83
2022-08-28T12:57:45.000Z,49.23
2022-08-28T13:00:06.000Z,46.63
2022-08-28T13:02:30.000Z,45
2022-08-28T13:04:56.000Z,45.7
2022-08-28T13:07:22.000Z,49.3
2022-08-28T13:09:48.000Z,44.42
2022-08-28T13:12:13.000Z,45.3
2022-08-28T13:14:39.000Z,46.63
2022-08-28T13:17:08.000Z,41.98
2022-08-28T13:19:34.000Z,41.85
2022-08-28T13:21:59.000Z,41.7
2022-08-28T13:24:25.000Z,41.33
2022-08-28T13:26:52.000Z,46.15
2022-08-28T13:29:18.000Z,39.88
2022-08-28T13:31:44.000Z,43.08
2022-08-28T13:34:14.000Z,42.3
2022-08-28T13:36:40.000Z,38.85
2022-08-28T13:39:05.000Z,40.08
2022-08-28T13:41:32.000Z,41.98
2022-08-28T13:46:24.000Z,43.87
2022-08-28T13:48:51.000Z,47.08
2022-08-28T13:51:17.000Z,46.1
2022-08-28T13:53:43.000Z,46.1
2022-08-28T13:53:51.000Z,40.65
2022-08-28T13:56:09.000Z,40.65
2022-08-28T13:56:16.000Z,43.35
2022-08-28T13:58:35.000Z,45.87
2022-08-28T14:01:00.000Z,46.9
2022-08-28T14:03:26.000Z,46.17
2022-08-28T14:05:52.000Z,49.3
2022-08-28T14:08:18.000Z,49.65
2022-08-28T14:10:44.000Z,57.7
2022-08-28T14:13:10.000Z,51.03
2022-08-28T14:15:35.000Z,51.5
2022-08-28T14:18:02.000Z,48.93
2022-08-28T14:20:28.000Z,48.98
2022-08-28T14:22:54.000Z,53.48
2022-08-28T14:25:19.000Z,51.63
2022-08-28T14:27:45.000Z,53.13
2022-08-28T14:30:11.000Z,52.17
2022-08-28T14:32:37.000Z,50.12
2022-08-28T14:35:03.000Z,49.77
2022-08-28T14:37:28.000Z,47
2022-08-28T14:39:55.000Z,49.93
2022-08-28T14:42:20.000Z,44.95
2022-08-28T14:44:46.000Z,46.42
2022-08-28T14:47:12.000Z,43.23
2022-08-28T14:49:37.000Z,44.97
2022-08-28T14:52:03.000Z,40.98
2022-08-28T14:54:30.000Z,43.25
2022-08-28T14:56:56.000Z,38.5
2022-08-28T14:59:23.000Z,43.4
2022-08-28T15:01:48.000Z,40.5
2022-08-28T15:04:14.000Z,45.17
2022-08-28T15:06:40.000Z,43.33
2022-08-28T15:09:07.000Z,39.6
2022-08-28T15:11:32.000Z,39.27
2022-08-28T15:13:58.000Z,46.37
2022-08-28T15:16:24.000Z,40.9
2022-08-28T15:18:49.000Z,40.9
2022-08-28T15:18:57.000Z,39.18
2022-08-28T15:21:15.000Z,48.95
2022-08-28T15:23:41.000Z,43.42
2022-08-28T15:26:07.000Z,46
2022-08-28T15:28:33.000Z,46
2022-08-28T15:28:40.000Z,46.35
2022-08-28T15:30:58.000Z,43.23
2022-08-28T15:33:25.000Z,47.62
2022-08-28T15:35:50.000Z,44.93
2022-08-28T15:38:16.000Z,42.13
2022-08-28T15:40:43.000Z,42.62
2022-08-28T15:43:08.000Z,46.07
2022-08-28T15:45:34.000Z,51.07
2022-08-28T15:48:00.000Z,50.65
2022-08-28T15:50:26.000Z,44.77
2022-08-28T15:52:52.000Z,44
2022-08-28T15:55:17.000Z,55.6
2022-08-28T15:57:44.000Z,47.05
2022-08-28T16:00:12.000Z,46.83
2022-08-28T16:02:36.000Z,52.8
2022-08-28T16:05:02.000Z,44.97
2022-08-28T16:07:31.000Z,50.83
2022-08-28T16:10:00.000Z,47.6
2022-08-28T16:12:23.000Z,50.3
2022-08-28T16:14:50.000Z,46.18
2022-08-28T16:17:14.000Z,42.55
2022-08-28T16:19:40.000Z,49.5
2022-08-28T16:22:06.000Z,44.15
2022-08-28T16:24:33.000Z,41.85
2022-08-28T16:26:58.000Z,45.8
2022-08-28T16:29:24.000Z,47.57
2022-08-28T16:31:50.000Z,43.48
2022-08-28T16:34:16.000Z,46.55
2022-08-28T16:36:42.000Z,46.55
2022-08-28T16:36:49.000Z,47.63
2022-08-28T16:39:08.000Z,46.63
2022-08-28T16:41:35.000Z,45.05
2022-08-28T16:43:59.000Z,50.5
2022-08-28T16:46:25.000Z,45.13
2022-08-28T16:48:52.000Z,42.4
2022-08-28T16:51:18.000Z,45
2022-08-28T16:53:43.000Z,42.83
2022-08-28T16:56:09.000Z,35.27
2022-08-28T16:58:35.000Z,34.67
2022-08-28T17:01:01.000Z,34.5
2022-08-28T17:03:27.000Z,34.5
2022-08-28T17:03:34.000Z,31.27
2022-08-28T17:05:53.000Z,34.03
2022-08-28T17:08:20.000Z,34.03
2022-08-28T17:10:44.000Z,29.23
2022-08-28T17:13:11.000Z,30.35
2022-08-28T17:15:36.000Z,29.07
2022-08-28T17:18:02.000Z,33
2022-08-28T17:20:29.000Z,30.15
2022-08-28T17:22:54.000Z,32.55
2022-08-28T17:25:21.000Z,30.53
2022-08-28T17:27:46.000Z,30.27
2022-08-28T17:30:12.000Z,32.7
2022-08-28T17:32:38.000Z,31.27
2022-08-28T17:35:04.000Z,31.42
2022-08-28T17:37:30.000Z,29.33
2022-08-28T17:39:56.000Z,31.17
2022-08-28T17:42:22.000Z,30.65
2022-08-28T17:44:47.000Z,27.27
2022-08-28T17:47:13.000Z,29.12
2022-08-28T17:49:39.000Z,29.12
2022-08-28T17:49:46.000Z,28.3
2022-08-28T17:52:05.000Z,29.67
2022-08-28T17:54:33.000Z,27.27
2022-08-28T17:56:57.000Z,27.4
2022-08-28T17:59:22.000Z,27.93
2022-08-28T18:01:48.000Z,27.93
2022-08-28T18:04:17.000Z,26
2022-08-28T18:06:43.000Z,26
2022-08-28T18:06:51.000Z,31.65
2022-08-28T18:09:09.000Z,26.17
2022-08-28T18:11:36.000Z,27.97
2022-08-28T18:14:00.000Z,27.73
2022-08-28T18:16:27.000Z,25.88
2022-08-28T18:18:53.000Z,25.88
2022-08-28T18:18:59.000Z,25.72
2022-08-28T18:21:18.000Z,26.63
2022-08-28T18:23:44.000Z,25.6
2022-08-28T18:26:10.000Z,28.73
2022-08-28T18:28:36.000Z,25.32
2022-08-28T18:33:29.000Z,29.18
2022-08-28T18:35:55.000Z,28.5
2022-08-28T18:38:20.000Z,29.3
2022-08-28T18:40:46.000Z,30.75
2022-08-28T18:43:12.000Z,26.6
2022-08-28T18:45:39.000Z,28.37
2022-08-28T18:48:05.000Z,30.73
2022-08-28T18:50:30.000Z,30.2
2022-08-28T18:52:56.000Z,28.35
2022-08-28T18:55:23.000Z,27.03
2022-08-28T18:57:49.000Z,27.37
2022-08-28T19:00:15.000Z,26.85
2022-08-28T19:02:40.000Z,30.72
2022-08-28T19:05:06.000Z,30.23
2022-08-28T19:07:32.000Z,28.45
2022-08-28T19:09:58.000Z,28
2022-08-28T19:12:23.000Z,28.95
2022-08-28T19:14:49.000Z,27.8
2022-08-28T19:17:16.000Z,24.4
2022-08-28T19:19:42.000Z,24.4
2022-08-28T19:19:48.000Z,27.15
2022-08-28T19:22:08.000Z,24.12
2022-08-28T19:24:35.000Z,23.83
2022-08-28T19:27:00.000Z,26.2
2022-08-28T19:29:26.000Z,29
2022-08-28T19:31:52.000Z,28.42
2022-08-28T19:34:19.000Z,32.07
2022-08-28T19:36:44.000Z,33.9
2022-08-28T19:39:10.000Z,33.23
2022-08-28T19:41:36.000Z,33.05
2022-08-28T19:44:02.000Z,37.4
2022-08-28T19:46:28.000Z,33.83
2022-08-28T19:48:55.000Z,29.2
2022-08-28T19:51:21.000Z,27.67
2022-08-28T19:53:46.000Z,27.67
2022-08-28T19:56:13.000Z,27.67
2022-08-28T19:56:24.000Z,29.47
2022-08-28T19:58:38.000Z,29.47
2022-08-28T19:58:47.000Z,28.47
2022-08-28T20:01:04.000Z,28.47
2022-08-28T20:01:12.000Z,32.42
2022-08-28T20:01:21.000Z,32.5
2022-08-28T20:03:30.000Z,29.5
2022-08-28T20:05:56.000Z,27.1
2022-08-28T20:08:22.000Z,27.58
2022-08-28T20:10:47.000Z,27.67
2022-08-28T20:13:18.000Z,26.42
2022-08-28T20:15:39.000Z,27.67
2022-08-28T20:18:06.000Z,28.93
2022-08-28T20:20:32.000Z,28.23
2022-08-28T20:22:57.000Z,29
2022-08-28T20:25:24.000Z,26.3
2022-08-28T20:27:49.000Z,26.77
2022-08-28T20:30:18.000Z,26.77
2022-08-28T20:30:26.000Z,22.52
2022-08-28T20:32:42.000Z,27.4
2022-08-28T20:35:08.000Z,26.17
2022-08-28T20:37:34.000Z,26.23
2022-08-28T20:39:59.000Z,26.23
2022-08-28T20:42:25.000Z,26.23
2022-08-28T20:42:36.000Z,23.7
2022-08-28T20:42:43.000Z,23.85
2022-08-28T20:44:51.000Z,22.77
2022-08-28T20:47:17.000Z,22.67
2022-08-28T20:49:43.000Z,22.1
2022-08-28T20:52:09.000Z,23.1
2022-08-28T20:54:34.000Z,27.67
2022-08-28T20:57:01.000Z,23.22
2022-08-28T20:59:27.000Z,25.2
2022-08-28T21:01:52.000Z,25.2
2022-08-28T21:02:00.000Z,23.92
2022-08-28T21:04:18.000Z,24.7
2022-08-28T21:06:43.000Z,23.83
2022-08-28T21:09:09.000Z,23.93
2022-08-28T21:11:36.000Z,23.42
2022-08-28T21:14:01.000Z,24.47
2022-08-28T21:16:27.000Z,25.33
2022-08-28T21:18:52.000Z,26.87
2022-08-28T21:21:19.000Z,26.87
2022-08-28T21:21:30.000Z,26.52
2022-08-28T21:23:45.000Z,26.52
2022-08-28T21:23:54.000Z,25.43
2022-08-28T21:26:11.000Z,28.62
2022-08-28T21:28:37.000Z,24.43
2022-08-28T21:31:04.000Z,27.1
2022-08-28T21:33:29.000Z,27
2022-08-28T21:35:54.000Z,33.7
2022-08-28T21:38:21.000Z,29.65
2022-08-28T21:40:46.000Z,27.7
2022-08-28T21:43:12.000Z,30.5
2022-08-28T21:45:38.000Z,33.1
2022-08-28T21:48:04.000Z,32.67
2022-08-28T21:50:29.000Z,33
2022-08-28T21:52:56.000Z,30.12
2022-08-28T21:55:22.000Z,33.2
2022-08-28T21:57:47.000Z,32.9
2022-08-28T22:00:15.000Z,37.03
2022-08-28T22:02:38.000Z,35.4
2022-08-28T22:05:04.000Z,37.67
2022-08-28T22:07:29.000Z,38.5
2022-08-28T22:09:56.000Z,38.9
2022-08-28T22:12:21.000Z,40.57
2022-08-28T22:14:48.000Z,40.57
2022-08-28T22:14:56.000Z,38.53
2022-08-28T22:17:13.000Z,39.95
2022-08-28T22:19:38.000Z,38.65
2022-08-28T22:22:05.000Z,39.6
2022-08-28T22:24:30.000Z,40.87
2022-08-28T22:29:23.000Z,40.3
2022-08-28T22:31:48.000Z,43.15
2022-08-28T22:34:14.000Z,39.65
2022-08-28T22:36:40.000Z,39.8
2022-08-28T22:39:06.000Z,42.17
2022-08-28T22:41:33.000Z,44.65
2022-08-28T22:43:58.000Z,41.7
2022-08-28T22:46:24.000Z,44.23
2022-08-28T22:48:50.000Z,40.95
2022-08-28T22:51:16.000Z,48.23
2022-08-28T22:53:42.000Z,45.38
2022-08-28T22:56:08.000Z,47.88
2022-08-28T22:58:33.000Z,43.05
2022-08-28T23:00:59.000Z,47.2
2022-08-28T23:03:26.000Z,47.2
2022-08-28T23:05:51.000Z,47.63
2022-08-28T23:08:17.000Z,44.2
2022-08-28T23:10:43.000Z,45.85
2022-08-28T23:13:09.000Z,45.85
2022-08-28T23:15:34.000Z,45.85
2022-08-28T23:15:42.000Z,42.75
2022-08-28T23:15:48.000Z,51.77
2022-08-28T23:18:01.000Z,44.13
2022-08-28T23:20:27.000Z,48.58
2022-08-28T23:22:52.000Z,49.35
2022-08-28T23:25:19.000Z,49.35
2022-08-28T23:25:26.000Z,45.9
2022-08-28T23:27:45.000Z,42.83
2022-08-28T23:30:11.000Z,48
2022-08-28T23:32:36.000Z,53.35
2022-08-28T23:35:03.000Z,50
2022-08-28T23:37:28.000Z,50
2022-08-28T23:37:36.000Z,52.27
2022-08-28T23:39:53.000Z,52.27
2022-08-28T23:42:19.000Z,52.27
2022-08-28T23:42:27.000Z,48.8
2022-08-28T23:42:34.000Z,52.43
2022-08-28T23:44:46.000Z,52.73
2022-08-28T23:47:12.000Z,49.03
2022-08-28T23:49:38.000Z,54.6
2022-08-28T23:52:03.000Z,51.58
2022-08-28T23:54:29.000Z,48.98
2022-08-28T23:56:55.000Z,54.75
2022-08-28T23:59:20.000Z,54.75
2022-08-28T23:59:30.000Z,53.13
